sensor_id;sensor_type;location;lat;lon;timestamp;temperature;humidity
47090;DHT22;32840;52.516;13.294;2022-10-26T00:02:43;12.00;99.90
47090;DHT22;32840;52.516;13.294;2022-10-26T00:05:32;12.00;99.90
47090;DHT22;32840;52.516;13.294;2022-10-26T00:08:16;12.00;99.90
47090;DHT22;32840;52.516;13.294;2022-10-26T00:11:02;12.00;99.90
47090;DHT22;32840;52.516;13.294;2022-10-26T00:13:47;12.00;99.90
47090;DHT22;32840;52.516;13.294;2022-10-26T00:16:32;12.00;99.90
47090;DHT22;32840;52.516;13.294;2022-10-26T00:19:17;12.00;99.90
47090;DHT22;32840;52.516;13.294;2022-10-26T00:22:02;12.10;99.90
47090;DHT22;32840;52.516;13.294;2022-10-26T00:24:46;12.00;99.90
47090;DHT22;32840;52.516;13.294;2022-10-26T00:27:32;12.00;99.90
47090;DHT22;32840;52.516;13.294;2022-10-26T00:30:18;12.10;99.90
47090;DHT22;32840;52.516;13.294;2022-10-26T00:33:03;12.00;99.90
47090;DHT22;32840;52.516;13.294;2022-10-26T00:35:52;12.00;99.90
47090;DHT22;32840;52.516;13.294;2022-10-26T00:38:37;11.90;99.90
47090;DHT22;32840;52.516;13.294;2022-10-26T00:41:25;11.90;99.90
47090;DHT22;32840;52.516;13.294;2022-10-26T00:50:28;11.90;99.90
47090;DHT22;32840;52.516;13.294;2022-10-26T00:53:14;11.90;99.90
47090;DHT22;32840;52.516;13.294;2022-10-26T00:56:00;11.90;99.90
47090;DHT22;32840;52.516;13.294;2022-10-26T00:58:46;11.90;99.90
47090;DHT22;32840;52.516;13.294;2022-10-26T01:01:32;11.80;99.90
47090;DHT22;32840;52.516;13.294;2022-10-26T01:04:20;11.80;99.90
47090;DHT22;32840;52.516;13.294;2022-10-26T01:07:05;11.80;99.90
47090;DHT22;32840;52.516;13.294;2022-10-26T01:09:52;11.90;99.90
47090;DHT22;32840;52.516;13.294;2022-10-26T01:12:37;11.80;99.90
47090;DHT22;32840;52.516;13.294;2022-10-26T01:15:28;11.80;99.90
47090;DHT22;32840;52.516;13.294;2022-10-26T01:18:29;11.80;99.90
47090;DHT22;32840;52.516;13.294;2022-10-26T01:27:46;11.90;99.90
47090;DHT22;32840;52.516;13.294;2022-10-26T01:30:37;11.80;99.90
47090;DHT22;32840;52.516;13.294;2022-10-26T01:39:15;11.80;99.90
47090;DHT22;32840;52.516;13.294;2022-10-26T01:42:02;11.70;99.90
47090;DHT22;32840;52.516;13.294;2022-10-26T01:44:52;11.70;99.90
47090;DHT22;32840;52.516;13.294;2022-10-26T01:47:39;11.70;99.90
47090;DHT22;32840;52.516;13.294;2022-10-26T01:50:25;11.80;99.90
47090;DHT22;32840;52.516;13.294;2022-10-26T01:53:12;11.80;99.90
47090;DHT22;32840;52.516;13.294;2022-10-26T01:55:58;11.70;99.90
47090;DHT22;32840;52.516;13.294;2022-10-26T02:08:23;11.70;99.90
47090;DHT22;32840;52.516;13.294;2022-10-26T02:11:35;11.70;99.90
47090;DHT22;32840;52.516;13.294;2022-10-26T02:14:49;11.70;99.90
47090;DHT22;32840;52.516;13.294;2022-10-26T02:17:50;11.70;99.90
47090;DHT22;32840;52.516;13.294;2022-10-26T02:20:47;11.60;99.90
47090;DHT22;32840;52.516;13.294;2022-10-26T02:23:36;11.70;99.90
47090;DHT22;32840;52.516;13.294;2022-10-26T02:26:26;11.70;99.90
47090;DHT22;32840;52.516;13.294;2022-10-26T02:29:16;11.60;99.90
47090;DHT22;32840;52.516;13.294;2022-10-26T02:32:04;11.60;99.90
47090;DHT22;32840;52.516;13.294;2022-10-26T02:34:50;11.70;99.90
47090;DHT22;32840;52.516;13.294;2022-10-26T02:37:37;11.50;99.90
47090;DHT22;32840;52.516;13.294;2022-10-26T02:40:25;11.50;99.90
47090;DHT22;32840;52.516;13.294;2022-10-26T02:43:13;11.50;99.90
47090;DHT22;32840;52.516;13.294;2022-10-26T02:46:03;11.40;99.90
47090;DHT22;32840;52.516;13.294;2022-10-26T02:48:49;11.40;99.90
47090;DHT22;32840;52.516;13.294;2022-10-26T02:51:46;11.50;99.90
47090;DHT22;32840;52.516;13.294;2022-10-26T02:54:57;11.50;99.90
47090;DHT22;32840;52.516;13.294;2022-10-26T02:57:47;11.40;99.90
47090;DHT22;32840;52.516;13.294;2022-10-26T03:00:33;11.40;99.90
47090;DHT22;32840;52.516;13.294;2022-10-26T03:03:18;11.30;99.90
47090;DHT22;32840;52.516;13.294;2022-10-26T03:06:03;11.30;99.90
47090;DHT22;32840;52.516;13.294;2022-10-26T03:08:48;11.40;99.90
47090;DHT22;32840;52.516;13.294;2022-10-26T03:11:33;11.30;99.90
47090;DHT22;32840;52.516;13.294;2022-10-26T03:14:19;11.30;99.90
47090;DHT22;32840;52.516;13.294;2022-10-26T03:17:04;11.30;99.90
47090;DHT22;32840;52.516;13.294;2022-10-26T03:19:49;11.20;99.90
47090;DHT22;32840;52.516;13.294;2022-10-26T03:22:33;11.20;99.90
47090;DHT22;32840;52.516;13.294;2022-10-26T03:25:18;11.30;99.90
47090;DHT22;32840;52.516;13.294;2022-10-26T03:28:04;11.20;99.90
47090;DHT22;32840;52.516;13.294;2022-10-26T03:30:49;11.20;99.90
47090;DHT22;32840;52.516;13.294;2022-10-26T03:33:34;11.20;99.90
47090;DHT22;32840;52.516;13.294;2022-10-26T03:36:19;11.20;99.90
47090;DHT22;32840;52.516;13.294;2022-10-26T03:39:04;11.20;99.90
47090;DHT22;32840;52.516;13.294;2022-10-26T03:41:49;11.20;99.90
47090;DHT22;32840;52.516;13.294;2022-10-26T03:44:34;11.20;99.90
47090;DHT22;32840;52.516;13.294;2022-10-26T03:47:19;11.20;99.90
47090;DHT22;32840;52.516;13.294;2022-10-26T03:50:04;11.20;99.90
47090;DHT22;32840;52.516;13.294;2022-10-26T03:52:49;11.20;99.90
47090;DHT22;32840;52.516;13.294;2022-10-26T03:55:34;11.20;99.90
47090;DHT22;32840;52.516;13.294;2022-10-26T03:58:19;11.20;99.90
47090;DHT22;32840;52.516;13.294;2022-10-26T04:01:05;11.20;99.90
47090;DHT22;32840;52.516;13.294;2022-10-26T04:04:01;11.20;99.90
47090;DHT22;32840;52.516;13.294;2022-10-26T04:06:46;11.20;99.90
47090;DHT22;32840;52.516;13.294;2022-10-26T04:09:31;11.20;99.90
47090;DHT22;32840;52.516;13.294;2022-10-26T04:12:16;11.20;99.90
47090;DHT22;32840;52.516;13.294;2022-10-26T04:15:01;11.10;99.90
47090;DHT22;32840;52.516;13.294;2022-10-26T04:17:46;11.20;99.90
47090;DHT22;32840;52.516;13.294;2022-10-26T04:20:32;11.10;99.90
47090;DHT22;32840;52.516;13.294;2022-10-26T04:23:19;11.10;99.90
47090;DHT22;32840;52.516;13.294;2022-10-26T04:26:04;11.00;99.90
47090;DHT22;32840;52.516;13.294;2022-10-26T04:28:49;11.00;99.90
47090;DHT22;32840;52.516;13.294;2022-10-26T04:31:34;10.90;99.90
47090;DHT22;32840;52.516;13.294;2022-10-26T04:34:19;10.90;99.90
47090;DHT22;32840;52.516;13.294;2022-10-26T04:37:04;10.80;99.90
47090;DHT22;32840;52.516;13.294;2022-10-26T04:39:49;10.80;99.90
47090;DHT22;32840;52.516;13.294;2022-10-26T04:42:44;10.70;99.90
47090;DHT22;32840;52.516;13.294;2022-10-26T04:45:30;10.80;99.90
47090;DHT22;32840;52.516;13.294;2022-10-26T04:48:14;10.70;99.90
47090;DHT22;32840;52.516;13.294;2022-10-26T04:51:00;10.70;99.90
47090;DHT22;32840;52.516;13.294;2022-10-26T04:53:45;10.80;99.90
47090;DHT22;32840;52.516;13.294;2022-10-26T04:56:30;10.80;99.90
47090;DHT22;32840;52.516;13.294;2022-10-26T04:59:14;10.70;99.90
47090;DHT22;32840;52.516;13.294;2022-10-26T05:01:59;10.70;99.90
47090;DHT22;32840;52.516;13.294;2022-10-26T05:04:44;10.80;99.90
47090;DHT22;32840;52.516;13.294;2022-10-26T05:07:29;10.70;99.90
47090;DHT22;32840;52.516;13.294;2022-10-26T05:10:14;10.70;99.90
47090;DHT22;32840;52.516;13.294;2022-10-26T05:12:59;10.70;99.90
47090;DHT22;32840;52.516;13.294;2022-10-26T05:15:45;10.70;99.90
47090;DHT22;32840;52.516;13.294;2022-10-26T05:18:30;10.70;99.90
47090;DHT22;32840;52.516;13.294;2022-10-26T05:21:16;10.70;99.90
47090;DHT22;32840;52.516;13.294;2022-10-26T05:24:04;10.70;99.90
47090;DHT22;32840;52.516;13.294;2022-10-26T05:26:49;10.60;99.90
47090;DHT22;32840;52.516;13.294;2022-10-26T05:29:33;10.60;99.90
47090;DHT22;32840;52.516;13.294;2022-10-26T05:32:20;10.60;99.90
47090;DHT22;32840;52.516;13.294;2022-10-26T05:35:05;10.70;99.90
47090;DHT22;32840;52.516;13.294;2022-10-26T05:37:50;10.70;99.90
47090;DHT22;32840;52.516;13.294;2022-10-26T05:40:35;10.70;99.90
47090;DHT22;32840;52.516;13.294;2022-10-26T05:43:22;10.70;99.90
47090;DHT22;32840;52.516;13.294;2022-10-26T05:46:07;10.70;99.90
47090;DHT22;32840;52.516;13.294;2022-10-26T05:48:52;10.70;99.90
47090;DHT22;32840;52.516;13.294;2022-10-26T05:51:38;10.70;99.90
47090;DHT22;32840;52.516;13.294;2022-10-26T05:54:23;10.70;99.90
47090;DHT22;32840;52.516;13.294;2022-10-26T05:57:12;10.70;99.90
47090;DHT22;32840;52.516;13.294;2022-10-26T05:59:57;10.70;99.90
47090;DHT22;32840;52.516;13.294;2022-10-26T06:05:52;10.80;99.90
47090;DHT22;32840;52.516;13.294;2022-10-26T06:08:38;10.80;99.90
47090;DHT22;32840;52.516;13.294;2022-10-26T06:11:23;10.80;99.90
47090;DHT22;32840;52.516;13.294;2022-10-26T06:14:09;10.80;99.90
47090;DHT22;32840;52.516;13.294;2022-10-26T06:23:19;10.90;99.90
47090;DHT22;32840;52.516;13.294;2022-10-26T06:26:26;10.90;99.90
47090;DHT22;32840;52.516;13.294;2022-10-26T06:32:44;10.90;99.90
47090;DHT22;32840;52.516;13.294;2022-10-26T06:35:47;10.90;99.90
47090;DHT22;32840;52.516;13.294;2022-10-26T06:38:36;10.90;99.90
47090;DHT22;32840;52.516;13.294;2022-10-26T06:41:22;11.00;99.90
47090;DHT22;32840;52.516;13.294;2022-10-26T06:44:11;10.90;99.90
47090;DHT22;32840;52.516;13.294;2022-10-26T06:47:38;10.90;99.90
47090;DHT22;32840;52.516;13.294;2022-10-26T06:50:39;11.00;99.90
47090;DHT22;32840;52.516;13.294;2022-10-26T06:53:35;11.10;99.90
47090;DHT22;32840;52.516;13.294;2022-10-26T06:56:22;11.10;99.90
47090;DHT22;32840;52.516;13.294;2022-10-26T06:59:16;11.10;99.90
47090;DHT22;32840;52.516;13.294;2022-10-26T07:02:03;11.10;99.90
47090;DHT22;32840;52.516;13.294;2022-10-26T07:04:48;11.10;99.90
47090;DHT22;32840;52.516;13.294;2022-10-26T07:07:35;11.20;99.90
47090;DHT22;32840;52.516;13.294;2022-10-26T07:10:23;11.20;99.90
47090;DHT22;32840;52.516;13.294;2022-10-26T07:13:09;11.20;99.90
47090;DHT22;32840;52.516;13.294;2022-10-26T07:15:54;11.10;99.90
47090;DHT22;32840;52.516;13.294;2022-10-26T07:18:39;11.20;99.90
47090;DHT22;32840;52.516;13.294;2022-10-26T07:21:24;11.10;99.90
47090;DHT22;32840;52.516;13.294;2022-10-26T07:24:09;11.20;99.90
47090;DHT22;32840;52.516;13.294;2022-10-26T07:26:55;11.20;99.90
47090;DHT22;32840;52.516;13.294;2022-10-26T07:29:40;11.20;99.90
47090;DHT22;32840;52.516;13.294;2022-10-26T07:32:25;11.30;99.90
47090;DHT22;32840;52.516;13.294;2022-10-26T07:35:10;11.30;99.90
47090;DHT22;32840;52.516;13.294;2022-10-26T07:37:58;11.30;99.90
47090;DHT22;32840;52.516;13.294;2022-10-26T07:40:43;11.40;99.90
47090;DHT22;32840;52.516;13.294;2022-10-26T07:43:28;11.40;99.90
47090;DHT22;32840;52.516;13.294;2022-10-26T07:46:13;11.50;99.90
47090;DHT22;32840;52.516;13.294;2022-10-26T07:48:58;11.50;99.90
47090;DHT22;32840;52.516;13.294;2022-10-26T07:51:43;11.60;99.90
47090;DHT22;32840;52.516;13.294;2022-10-26T07:54:27;11.60;99.90
47090;DHT22;32840;52.516;13.294;2022-10-26T07:57:15;11.60;99.90
47090;DHT22;32840;52.516;13.294;2022-10-26T08:00:01;11.70;99.90
47090;DHT22;32840;52.516;13.294;2022-10-26T08:02:46;11.80;99.90
47090;DHT22;32840;52.516;13.294;2022-10-26T08:05:31;11.80;99.90
47090;DHT22;32840;52.516;13.294;2022-10-26T08:08:17;11.80;99.90
47090;DHT22;32840;52.516;13.294;2022-10-26T08:11:02;11.80;99.90
47090;DHT22;32840;52.516;13.294;2022-10-26T08:13:50;11.90;99.90
47090;DHT22;32840;52.516;13.294;2022-10-26T08:16:36;12.00;99.90
47090;DHT22;32840;52.516;13.294;2022-10-26T08:19:23;12.00;99.90
47090;DHT22;32840;52.516;13.294;2022-10-26T08:22:08;12.00;99.90
47090;DHT22;32840;52.516;13.294;2022-10-26T08:24:53;12.10;99.90
47090;DHT22;32840;52.516;13.294;2022-10-26T08:27:38;12.10;99.90
47090;DHT22;32840;52.516;13.294;2022-10-26T08:30:23;12.10;99.90
47090;DHT22;32840;52.516;13.294;2022-10-26T08:33:09;12.20;99.90
47090;DHT22;32840;52.516;13.294;2022-10-26T08:35:59;12.20;99.90
47090;DHT22;32840;52.516;13.294;2022-10-26T08:38:46;12.30;99.90
47090;DHT22;32840;52.516;13.294;2022-10-26T08:41:40;12.40;99.90
47090;DHT22;32840;52.516;13.294;2022-10-26T08:44:37;12.50;99.90
47090;DHT22;32840;52.516;13.294;2022-10-26T08:47:30;12.60;99.90
47090;DHT22;32840;52.516;13.294;2022-10-26T08:50:30;12.80;99.90
47090;DHT22;32840;52.516;13.294;2022-10-26T08:53:21;12.90;99.90
47090;DHT22;32840;52.516;13.294;2022-10-26T08:56:25;13.00;99.90
47090;DHT22;32840;52.516;13.294;2022-10-26T09:02:11;13.10;99.90
47090;DHT22;32840;52.516;13.294;2022-10-26T09:04:57;13.10;99.90
47090;DHT22;32840;52.516;13.294;2022-10-26T09:07:55;13.10;99.90
47090;DHT22;32840;52.516;13.294;2022-10-26T09:17:03;13.20;99.90
47090;DHT22;32840;52.516;13.294;2022-10-26T09:23:12;13.30;99.90
47090;DHT22;32840;52.516;13.294;2022-10-26T09:26:00;13.30;99.90
47090;DHT22;32840;52.516;13.294;2022-10-26T09:28:47;13.40;99.90
47090;DHT22;32840;52.516;13.294;2022-10-26T09:31:39;13.40;99.90
47090;DHT22;32840;52.516;13.294;2022-10-26T09:34:44;13.50;99.90
47090;DHT22;32840;52.516;13.294;2022-10-26T09:38:13;13.60;99.90
47090;DHT22;32840;52.516;13.294;2022-10-26T09:41:30;13.60;99.90
47090;DHT22;32840;52.516;13.294;2022-10-26T09:47:12;13.70;99.90
47090;DHT22;32840;52.516;13.294;2022-10-26T09:50:04;13.80;99.90
47090;DHT22;32840;52.516;13.294;2022-10-26T09:52:50;13.80;99.90
47090;DHT22;32840;52.516;13.294;2022-10-26T09:55:41;13.90;99.90
47090;DHT22;32840;52.516;13.294;2022-10-26T09:58:29;13.90;99.90
47090;DHT22;32840;52.516;13.294;2022-10-26T10:01:29;14.00;99.90
47090;DHT22;32840;52.516;13.294;2022-10-26T10:04:18;14.10;99.90
47090;DHT22;32840;52.516;13.294;2022-10-26T10:10:13;14.20;99.90
47090;DHT22;32840;52.516;13.294;2022-10-26T10:13:14;14.20;99.90
47090;DHT22;32840;52.516;13.294;2022-10-26T10:16:10;14.20;99.90
47090;DHT22;32840;52.516;13.294;2022-10-26T10:18:58;14.20;99.90
47090;DHT22;32840;52.516;13.294;2022-10-26T10:21:47;14.30;99.90
47090;DHT22;32840;52.516;13.294;2022-10-26T10:24:35;14.30;99.90
47090;DHT22;32840;52.516;13.294;2022-10-26T10:27:21;14.30;99.90
47090;DHT22;32840;52.516;13.294;2022-10-26T10:30:20;14.30;99.90
47090;DHT22;32840;52.516;13.294;2022-10-26T10:33:10;14.40;99.90
47090;DHT22;32840;52.516;13.294;2022-10-26T10:35:56;14.50;99.90
47090;DHT22;32840;52.516;13.294;2022-10-26T10:38:43;14.50;99.90
47090;DHT22;32840;52.516;13.294;2022-10-26T10:41:34;14.60;99.90
47090;DHT22;32840;52.516;13.294;2022-10-26T10:44:27;14.60;99.90
47090;DHT22;32840;52.516;13.294;2022-10-26T10:47:31;14.60;99.90
47090;DHT22;32840;52.516;13.294;2022-10-26T10:50:19;14.70;99.90
47090;DHT22;32840;52.516;13.294;2022-10-26T10:53:33;14.70;99.90
47090;DHT22;32840;52.516;13.294;2022-10-26T10:56:39;14.80;99.90
47090;DHT22;32840;52.516;13.294;2022-10-26T10:59:37;14.90;99.90
47090;DHT22;32840;52.516;13.294;2022-10-26T11:08:56;14.90;99.90
47090;DHT22;32840;52.516;13.294;2022-10-26T11:12:05;15.00;99.90
47090;DHT22;32840;52.516;13.294;2022-10-26T11:15:10;15.10;99.90
47090;DHT22;32840;52.516;13.294;2022-10-26T11:20:57;15.10;99.90
47090;DHT22;32840;52.516;13.294;2022-10-26T11:23:49;15.20;99.90
47090;DHT22;32840;52.516;13.294;2022-10-26T11:26:46;15.30;99.90
47090;DHT22;32840;52.516;13.294;2022-10-26T11:30:05;15.30;99.90
47090;DHT22;32840;52.516;13.294;2022-10-26T11:32:54;15.30;99.90
47090;DHT22;32840;52.516;13.294;2022-10-26T11:35:51;15.30;99.90
47090;DHT22;32840;52.516;13.294;2022-10-26T11:38:54;15.30;99.90
47090;DHT22;32840;52.516;13.294;2022-10-26T11:41:44;15.30;99.90
47090;DHT22;32840;52.516;13.294;2022-10-26T11:44:42;15.40;99.90
47090;DHT22;32840;52.516;13.294;2022-10-26T11:47:45;15.40;99.90
47090;DHT22;32840;52.516;13.294;2022-10-26T11:50:33;15.40;99.90
47090;DHT22;32840;52.516;13.294;2022-10-26T11:53:38;15.50;99.90
47090;DHT22;32840;52.516;13.294;2022-10-26T11:56:38;15.50;99.90
47090;DHT22;32840;52.516;13.294;2022-10-26T11:59:28;15.50;99.90
47090;DHT22;32840;52.516;13.294;2022-10-26T12:02:17;15.60;99.90
47090;DHT22;32840;52.516;13.294;2022-10-26T12:05:33;15.60;99.90
47090;DHT22;32840;52.516;13.294;2022-10-26T12:08:23;15.70;99.90
47090;DHT22;32840;52.516;13.294;2022-10-26T12:14:26;15.80;99.90
47090;DHT22;32840;52.516;13.294;2022-10-26T12:17:19;15.90;99.90
47090;DHT22;32840;52.516;13.294;2022-10-26T12:23:29;15.90;99.90
47090;DHT22;32840;52.516;13.294;2022-10-26T12:35:29;16.00;99.90
47090;DHT22;32840;52.516;13.294;2022-10-26T12:38:25;16.10;99.90
47090;DHT22;32840;52.516;13.294;2022-10-26T12:41:20;16.00;99.90
47090;DHT22;32840;52.516;13.294;2022-10-26T12:53:06;16.10;99.90
47090;DHT22;32840;52.516;13.294;2022-10-26T12:56:10;16.00;99.90
47090;DHT22;32840;52.516;13.294;2022-10-26T12:59:07;16.10;99.90
47090;DHT22;32840;52.516;13.294;2022-10-26T13:08:16;16.20;99.90
47090;DHT22;32840;52.516;13.294;2022-10-26T13:11:04;16.20;99.90
47090;DHT22;32840;52.516;13.294;2022-10-26T13:13:59;16.20;99.90
47090;DHT22;32840;52.516;13.294;2022-10-26T13:16:45;16.20;99.90
47090;DHT22;32840;52.516;13.294;2022-10-26T13:22:21;16.20;99.90
47090;DHT22;32840;52.516;13.294;2022-10-26T13:25:27;16.20;99.90
47090;DHT22;32840;52.516;13.294;2022-10-26T13:34:16;16.20;99.90
47090;DHT22;32840;52.516;13.294;2022-10-26T13:37:19;16.30;99.90
47090;DHT22;32840;52.516;13.294;2022-10-26T13:40:05;16.30;99.90
47090;DHT22;32840;52.516;13.294;2022-10-26T13:42:56;16.20;99.90
47090;DHT22;32840;52.516;13.294;2022-10-26T13:45:57;16.20;99.90
47090;DHT22;32840;52.516;13.294;2022-10-26T13:48:45;16.20;99.90
47090;DHT22;32840;52.516;13.294;2022-10-26T13:51:41;16.20;99.90
47090;DHT22;32840;52.516;13.294;2022-10-26T13:54:41;16.20;99.90
47090;DHT22;32840;52.516;13.294;2022-10-26T13:57:46;16.30;99.90
47090;DHT22;32840;52.516;13.294;2022-10-26T14:00:33;16.30;99.90
47090;DHT22;32840;52.516;13.294;2022-10-26T14:03:18;16.30;99.90
47090;DHT22;32840;52.516;13.294;2022-10-26T14:06:28;16.30;99.90
47090;DHT22;32840;52.516;13.294;2022-10-26T14:09:16;16.30;99.90
47090;DHT22;32840;52.516;13.294;2022-10-26T14:12:02;16.30;99.90
47090;DHT22;32840;52.516;13.294;2022-10-26T14:14:48;16.40;99.90
47090;DHT22;32840;52.516;13.294;2022-10-26T14:17:34;16.30;99.90
47090;DHT22;32840;52.516;13.294;2022-10-26T14:20:21;16.30;99.90
47090;DHT22;32840;52.516;13.294;2022-10-26T14:23:24;16.20;99.90
47090;DHT22;32840;52.516;13.294;2022-10-26T14:26:19;16.20;99.90
47090;DHT22;32840;52.516;13.294;2022-10-26T14:29:15;16.10;99.90
47090;DHT22;32840;52.516;13.294;2022-10-26T14:32:24;16.10;99.90
47090;DHT22;32840;52.516;13.294;2022-10-26T14:35:13;16.10;99.90
47090;DHT22;32840;52.516;13.294;2022-10-26T14:38:03;16.10;99.90
47090;DHT22;32840;52.516;13.294;2022-10-26T14:40:49;16.10;99.90
47090;DHT22;32840;52.516;13.294;2022-10-26T14:43:36;16.00;99.90
47090;DHT22;32840;52.516;13.294;2022-10-26T14:46:21;16.00;99.90
47090;DHT22;32840;52.516;13.294;2022-10-26T14:49:16;16.00;99.90
47090;DHT22;32840;52.516;13.294;2022-10-26T14:52:04;16.00;99.90
47090;DHT22;32840;52.516;13.294;2022-10-26T14:55:16;16.00;99.90
47090;DHT22;32840;52.516;13.294;2022-10-26T14:58:11;16.00;99.90
47090;DHT22;32840;52.516;13.294;2022-10-26T15:07:17;15.80;99.90
47090;DHT22;32840;52.516;13.294;2022-10-26T15:10:03;15.80;99.90
47090;DHT22;32840;52.516;13.294;2022-10-26T15:12:48;15.80;99.90
47090;DHT22;32840;52.516;13.294;2022-10-26T15:15:33;15.80;99.90
47090;DHT22;32840;52.516;13.294;2022-10-26T15:18:27;15.80;99.90
47090;DHT22;32840;52.516;13.294;2022-10-26T15:21:34;15.90;99.90
47090;DHT22;32840;52.516;13.294;2022-10-26T15:27:13;15.90;99.90
47090;DHT22;32840;52.516;13.294;2022-10-26T15:30:28;15.90;99.90
47090;DHT22;32840;52.516;13.294;2022-10-26T15:33:19;15.90;99.90
47090;DHT22;32840;52.516;13.294;2022-10-26T15:39:02;15.90;99.90
47090;DHT22;32840;52.516;13.294;2022-10-26T15:41:47;15.90;99.90
47090;DHT22;32840;52.516;13.294;2022-10-26T15:44:32;15.90;99.90
47090;DHT22;32840;52.516;13.294;2022-10-26T15:47:17;15.80;99.90
47090;DHT22;32840;52.516;13.294;2022-10-26T15:50:04;15.70;99.90
47090;DHT22;32840;52.516;13.294;2022-10-26T15:52:58;15.70;99.90
47090;DHT22;32840;52.516;13.294;2022-10-26T15:55:44;15.70;99.90
47090;DHT22;32840;52.516;13.294;2022-10-26T15:58:30;15.60;99.90
47090;DHT22;32840;52.516;13.294;2022-10-26T16:01:23;15.60;99.90
47090;DHT22;32840;52.516;13.294;2022-10-26T16:04:09;15.60;99.90
47090;DHT22;32840;52.516;13.294;2022-10-26T16:06:55;15.50;99.90
47090;DHT22;32840;52.516;13.294;2022-10-26T16:09:45;15.50;99.90
47090;DHT22;32840;52.516;13.294;2022-10-26T16:12:29;15.50;99.90
47090;DHT22;32840;52.516;13.294;2022-10-26T16:15:24;15.50;99.90
47090;DHT22;32840;52.516;13.294;2022-10-26T16:18:09;15.40;99.90
47090;DHT22;32840;52.516;13.294;2022-10-26T16:20:54;15.40;99.90
47090;DHT22;32840;52.516;13.294;2022-10-26T16:23:40;15.50;99.90
47090;DHT22;32840;52.516;13.294;2022-10-26T16:26:25;15.50;99.90
47090;DHT22;32840;52.516;13.294;2022-10-26T16:29:10;15.40;99.90
47090;DHT22;32840;52.516;13.294;2022-10-26T16:31:55;15.50;99.90
47090;DHT22;32840;52.516;13.294;2022-10-26T16:34:40;15.50;99.90
47090;DHT22;32840;52.516;13.294;2022-10-26T16:37:27;15.50;99.90
47090;DHT22;32840;52.516;13.294;2022-10-26T16:40:12;15.50;99.90
47090;DHT22;32840;52.516;13.294;2022-10-26T16:42:58;15.40;99.90
47090;DHT22;32840;52.516;13.294;2022-10-26T16:45:43;15.40;99.90
47090;DHT22;32840;52.516;13.294;2022-10-26T16:48:27;15.40;99.90
47090;DHT22;32840;52.516;13.294;2022-10-26T16:51:18;15.40;99.90
47090;DHT22;32840;52.516;13.294;2022-10-26T16:54:04;15.40;99.90
47090;DHT22;32840;52.516;13.294;2022-10-26T16:56:49;15.40;99.90
47090;DHT22;32840;52.516;13.294;2022-10-26T16:59:33;15.40;99.90
47090;DHT22;32840;52.516;13.294;2022-10-26T17:02:18;15.40;99.90
47090;DHT22;32840;52.516;13.294;2022-10-26T17:05:04;15.40;99.90
47090;DHT22;32840;52.516;13.294;2022-10-26T17:07:49;15.40;99.90
47090;DHT22;32840;52.516;13.294;2022-10-26T17:10:34;15.50;99.90
47090;DHT22;32840;52.516;13.294;2022-10-26T17:13:20;15.50;99.90
47090;DHT22;32840;52.516;13.294;2022-10-26T17:16:17;15.50;99.90
47090;DHT22;32840;52.516;13.294;2022-10-26T17:19:03;15.50;99.90
47090;DHT22;32840;52.516;13.294;2022-10-26T17:21:48;15.60;99.90
47090;DHT22;32840;52.516;13.294;2022-10-26T17:24:33;15.60;99.90
47090;DHT22;32840;52.516;13.294;2022-10-26T17:27:17;15.60;99.90
47090;DHT22;32840;52.516;13.294;2022-10-26T17:30:04;15.60;99.90
47090;DHT22;32840;52.516;13.294;2022-10-26T17:32:49;15.50;99.90
47090;DHT22;32840;52.516;13.294;2022-10-26T17:35:34;15.60;99.90
47090;DHT22;32840;52.516;13.294;2022-10-26T17:38:19;15.50;99.90
47090;DHT22;32840;52.516;13.294;2022-10-26T17:41:06;15.50;99.90
47090;DHT22;32840;52.516;13.294;2022-10-26T17:43:52;15.50;99.90
47090;DHT22;32840;52.516;13.294;2022-10-26T17:46:37;15.50;99.90
47090;DHT22;32840;52.516;13.294;2022-10-26T17:49:22;15.50;99.90
47090;DHT22;32840;52.516;13.294;2022-10-26T17:52:06;15.50;99.90
47090;DHT22;32840;52.516;13.294;2022-10-26T17:54:51;15.50;99.90
47090;DHT22;32840;52.516;13.294;2022-10-26T17:57:36;15.50;99.90
47090;DHT22;32840;52.516;13.294;2022-10-26T18:00:21;15.50;99.90
47090;DHT22;32840;52.516;13.294;2022-10-26T18:03:06;15.50;99.90
47090;DHT22;32840;52.516;13.294;2022-10-26T18:05:52;15.50;99.90
47090;DHT22;32840;52.516;13.294;2022-10-26T18:08:39;15.50;99.90
47090;DHT22;32840;52.516;13.294;2022-10-26T18:11:26;15.50;99.90
47090;DHT22;32840;52.516;13.294;2022-10-26T18:14:11;15.50;99.90
47090;DHT22;32840;52.516;13.294;2022-10-26T18:16:57;15.50;99.90
47090;DHT22;32840;52.516;13.294;2022-10-26T18:19:42;15.50;99.90
47090;DHT22;32840;52.516;13.294;2022-10-26T18:22:27;15.50;99.90
47090;DHT22;32840;52.516;13.294;2022-10-26T18:25:12;15.50;99.90
47090;DHT22;32840;52.516;13.294;2022-10-26T18:27:57;15.50;99.90
47090;DHT22;32840;52.516;13.294;2022-10-26T18:30:42;15.50;99.90
47090;DHT22;32840;52.516;13.294;2022-10-26T18:33:26;15.50;99.90
47090;DHT22;32840;52.516;13.294;2022-10-26T18:36:18;15.50;99.90
47090;DHT22;32840;52.516;13.294;2022-10-26T18:39:03;15.50;99.90
47090;DHT22;32840;52.516;13.294;2022-10-26T18:41:48;15.50;99.90
47090;DHT22;32840;52.516;13.294;2022-10-26T18:44:32;15.50;99.90
47090;DHT22;32840;52.516;13.294;2022-10-26T18:47:18;15.50;99.90
47090;DHT22;32840;52.516;13.294;2022-10-26T18:50:02;15.50;99.90
47090;DHT22;32840;52.516;13.294;2022-10-26T18:52:48;15.50;99.90
47090;DHT22;32840;52.516;13.294;2022-10-26T18:55:32;15.50;99.90
47090;DHT22;32840;52.516;13.294;2022-10-26T18:58:17;15.50;99.90
47090;DHT22;32840;52.516;13.294;2022-10-26T19:01:08;15.50;99.90
47090;DHT22;32840;52.516;13.294;2022-10-26T19:03:56;15.50;99.90
47090;DHT22;32840;52.516;13.294;2022-10-26T19:06:45;15.50;99.90
47090;DHT22;32840;52.516;13.294;2022-10-26T19:09:31;15.50;99.90
47090;DHT22;32840;52.516;13.294;2022-10-26T19:12:16;15.40;99.90
47090;DHT22;32840;52.516;13.294;2022-10-26T19:15:00;15.40;99.90
47090;DHT22;32840;52.516;13.294;2022-10-26T19:17:45;15.40;99.90
47090;DHT22;32840;52.516;13.294;2022-10-26T19:20:30;15.40;99.90
47090;DHT22;32840;52.516;13.294;2022-10-26T19:23:15;15.40;99.90
47090;DHT22;32840;52.516;13.294;2022-10-26T19:26:00;15.30;99.90
47090;DHT22;32840;52.516;13.294;2022-10-26T19:28:46;15.30;99.90
47090;DHT22;32840;52.516;13.294;2022-10-26T19:31:32;15.30;99.90
47090;DHT22;32840;52.516;13.294;2022-10-26T19:34:17;15.20;99.90